Kezdőlap
METAR-TAF:

METAR-TAF

Repülőterek :

Tbiliszi nemzetközi repülőtér

Tbiliszi, Grúzia

földrajzi szélesség: 41-40-09N, földrajzi hosszúság: 044-57-17E, magasság: 495 m

Jelenlegi meteorológiai megfigyelések

A jelentés 27 perccel ezelõtt készült, 22:30 UTC
Nyugat-északnyugati szél 7 kt
Hőmérséklet -1°C
Páratartalom 80%
Légköri nyomás 1023 hPa
Látótávolság 10 km, vagy több
felhőtlen 1500 m magasságban, és nincs gomolyfelhõ

METAR: UGTB 182230Z 29007KT CAVOK M01/M04 Q1023 NOSIG

Idő: 02:57 (22:57 UTC)

Előrejelzés

A jelentés 5 órával és 57 perccel ezelõtt készült, 17:00 UTC
Az előrejelzés 18-én 18 óra UTC és 19-én 18 óra UTC között érvényes
Északnyugati szél 12 kt
Látótávolság 10 km, vagy több
felhőtlen 1500 m magasságban, és nincs gomolyfelhõ

TAF: UGTB 181700Z 1818/1918 32012KT CAVOK TX09/1912Z TNM03/1902Z

Meteorológiai megfigyelések és előrejelzések több, mint 4000 repülőtéren (METAR és TAF jelentéseket).

A térképen piros és sárga pontok jelzik az elérhető meteorológiai állomásokat.

Mozgassa az egeret a pont fölött, hogy megjelenjen az állomás neve.

Azután kattintson az időjárási megfigyelések és előrejelzések megtekintéséhez.

A térkép megváltoztatása: kattintson a fekete keresztel jelölt zöld gombra ráközelítéshez, a vonallal jelölt zöld gombra távolításhoz, vagy a zöld nyilakra a szomszédos térképek eléréséhez.


METAR-TAF: